createdAt,value
2023-03-31T00:02:30.090Z,100.00
2023-03-31T00:05:00.009Z,100.00
2023-03-31T00:07:31.823Z,99.62
2023-03-31T00:10:16.638Z,98.76
2023-03-31T00:12:46.142Z,98.49
2023-03-31T00:15:14.242Z,98.35
2023-03-31T00:17:43.596Z,98.22
2023-03-31T00:20:12.627Z,97.83
2023-03-31T00:22:46.921Z,97.42
2023-03-31T00:25:15.514Z,97.38
2023-03-31T00:27:44.329Z,97.21
2023-03-31T00:30:15.935Z,96.98
2023-03-31T00:32:44.117Z,96.83
2023-03-31T00:35:12.739Z,96.40
2023-03-31T00:44:28.284Z,95.62
2023-03-31T00:47:02.755Z,95.37
2023-03-31T00:49:45.197Z,94.87
2023-03-31T00:52:19.651Z,94.93
2023-03-31T00:54:51.784Z,94.66
2023-03-31T00:57:21.467Z,94.29
2023-03-31T00:59:58.297Z,93.91
2023-03-31T01:02:26.073Z,93.73
2023-03-31T01:05:02.529Z,93.97
2023-03-31T01:07:41.521Z,94.21
2023-03-31T01:10:10.580Z,94.24
2023-03-31T01:12:41.861Z,94.32
2023-03-31T01:15:10.483Z,94.17
2023-03-31T01:17:40.813Z,94.24
2023-03-31T01:20:35.697Z,93.96
2023-03-31T01:23:36.045Z,94.18
2023-03-31T01:26:33.339Z,94.37
2023-03-31T01:29:11.965Z,94.39
2023-03-31T01:32:11.233Z,94.04
2023-03-31T01:34:57.970Z,94.04
2023-03-31T01:37:35.195Z,93.69
2023-03-31T01:40:16.064Z,93.97
2023-03-31T01:43:28.506Z,93.98
2023-03-31T01:45:59.522Z,94.24
2023-03-31T01:49:08.102Z,94.49
2023-03-31T01:51:42.894Z,94.28
2023-03-31T01:54:22.576Z,94.89
2023-03-31T01:56:55.158Z,94.67
2023-03-31T01:59:59.859Z,94.70
2023-03-31T02:02:40.662Z,95.07
2023-03-31T02:05:20.257Z,95.19
2023-03-31T02:07:53.094Z,95.15
2023-03-31T02:10:23.967Z,95.33
2023-03-31T02:12:53.976Z,95.02
2023-03-31T02:15:27.219Z,94.99
2023-03-31T02:17:59.542Z,95.06
2023-03-31T02:20:29.595Z,94.82
2023-03-31T02:22:58.099Z,94.57
2023-03-31T02:25:35.515Z,94.72
2023-03-31T02:28:09.696Z,94.64
2023-03-31T02:30:49.095Z,94.81
2023-03-31T02:33:17.055Z,94.89
2023-03-31T02:35:45.006Z,95.11
2023-03-31T02:38:13.300Z,95.02
2023-03-31T02:40:41.760Z,94.89
2023-03-31T02:43:10.266Z,94.57
2023-03-31T02:45:58.295Z,94.62
2023-03-31T02:48:31.108Z,94.70
2023-03-31T02:51:11.242Z,94.87
2023-03-31T02:53:51.271Z,94.83
2023-03-31T02:56:46.837Z,94.59
2023-03-31T02:59:17.740Z,94.56
2023-03-31T03:02:04.781Z,94.43
2023-03-31T03:04:51.749Z,94.20
2023-03-31T03:07:32.945Z,93.89
2023-03-31T03:10:22.159Z,94.25
2023-03-31T03:13:32.152Z,94.29
2023-03-31T03:16:22.040Z,94.12
2023-03-31T03:19:00.119Z,93.91
2023-03-31T03:21:28.945Z,93.98
2023-03-31T03:23:57.633Z,93.95
2023-03-31T03:26:28.395Z,93.79
2023-03-31T03:28:57.448Z,93.63
2023-03-31T03:31:26.195Z,93.72
2023-03-31T03:33:56.926Z,93.95
2023-03-31T03:36:27.078Z,94.16
2023-03-31T03:38:55.126Z,94.09
2023-03-31T03:41:26.753Z,94.18
2023-03-31T03:43:54.707Z,94.26
2023-03-31T03:46:22.727Z,94.46
2023-03-31T03:48:50.734Z,94.52
2023-03-31T03:51:18.515Z,94.63
2023-03-31T03:53:46.358Z,94.60
2023-03-31T03:56:14.189Z,94.46
2023-03-31T03:58:42.076Z,94.54
2023-03-31T04:01:11.269Z,94.36
2023-03-31T04:03:40.659Z,94.47
2023-03-31T04:06:08.864Z,94.54
2023-03-31T04:08:37.316Z,94.47
2023-03-31T04:11:14.432Z,94.52
2023-03-31T04:13:44.516Z,94.83
2023-03-31T04:16:15.916Z,94.91
2023-03-31T04:18:43.797Z,95.06
2023-03-31T04:21:15.709Z,95.11
2023-03-31T04:23:47.046Z,95.12
2023-03-31T04:26:17.132Z,95.11
2023-03-31T04:28:50.775Z,95.06
2023-03-31T04:31:25.511Z,95.19
2023-03-31T04:33:55.096Z,95.18
2023-03-31T04:36:22.905Z,95.14
2023-03-31T04:38:54.900Z,94.93
2023-03-31T04:41:24.740Z,94.58
2023-03-31T04:43:53.003Z,94.57
2023-03-31T04:46:21.676Z,94.69
2023-03-31T04:48:49.596Z,94.61
2023-03-31T04:51:17.458Z,94.67
2023-03-31T04:53:45.593Z,94.64
2023-03-31T04:56:13.389Z,94.25
2023-03-31T04:58:42.399Z,93.73
2023-03-31T05:01:13.746Z,93.72
2023-03-31T05:03:42.666Z,93.44
2023-03-31T05:06:11.172Z,93.28
2023-03-31T05:08:39.252Z,93.14
2023-03-31T05:11:09.716Z,92.89
2023-03-31T05:13:37.672Z,92.94
2023-03-31T05:16:14.896Z,92.52
2023-03-31T05:18:43.145Z,92.33
2023-03-31T05:21:19.631Z,92.61
2023-03-31T05:23:48.648Z,92.92
2023-03-31T05:26:16.818Z,92.93
2023-03-31T05:28:44.681Z,92.32
2023-03-31T05:31:13.329Z,92.10
2023-03-31T05:33:41.975Z,92.06
2023-03-31T05:36:12.716Z,91.72
2023-03-31T05:38:41.361Z,91.87
2023-03-31T05:41:10.985Z,91.99
2023-03-31T05:43:39.916Z,91.69
2023-03-31T05:46:10.218Z,91.85
2023-03-31T05:48:38.932Z,91.41
2023-03-31T05:51:06.762Z,91.31
2023-03-31T05:53:35.278Z,91.17
2023-03-31T05:56:07.056Z,91.00
2023-03-31T05:58:36.687Z,91.22
2023-03-31T06:01:19.921Z,90.98
2023-03-31T06:03:47.938Z,90.74
2023-03-31T06:06:19.578Z,89.49
2023-03-31T06:08:48.403Z,87.77
2023-03-31T06:11:19.620Z,87.14
2023-03-31T06:13:48.713Z,88.14
2023-03-31T06:16:17.755Z,87.99
2023-03-31T06:18:51.656Z,88.22
2023-03-31T06:21:22.019Z,88.17
2023-03-31T06:23:50.334Z,87.52
2023-03-31T06:26:19.421Z,88.05
2023-03-31T06:28:47.460Z,88.45
2023-03-31T06:31:18.699Z,88.56
2023-03-31T06:33:47.685Z,88.17
2023-03-31T06:36:18.800Z,87.30
2023-03-31T06:38:46.926Z,86.76
2023-03-31T06:41:16.344Z,86.73
2023-03-31T06:43:44.401Z,85.59
2023-03-31T06:46:12.575Z,85.33
2023-03-31T06:48:41.512Z,85.03
2023-03-31T06:51:10.348Z,84.23
2023-03-31T06:53:38.322Z,83.97
2023-03-31T06:56:07.475Z,83.70
2023-03-31T06:58:36.786Z,84.06
2023-03-31T07:01:06.257Z,84.41
2023-03-31T07:03:34.488Z,84.73
2023-03-31T07:06:02.519Z,84.43
2023-03-31T07:08:31.334Z,84.00
2023-03-31T07:11:00.754Z,83.21
2023-03-31T07:13:29.164Z,82.04
2023-03-31T07:15:57.756Z,80.68
2023-03-31T07:18:34.988Z,78.70
2023-03-31T07:21:06.560Z,78.54
2023-03-31T07:23:37.756Z,79.00
2023-03-31T07:26:17.775Z,78.64
2023-03-31T07:28:48.892Z,79.42
2023-03-31T07:31:16.651Z,79.12
2023-03-31T07:33:44.444Z,78.56
2023-03-31T07:36:14.229Z,78.34
2023-03-31T07:38:44.294Z,77.56
2023-03-31T07:41:18.245Z,76.73
2023-03-31T07:43:46.607Z,75.36
2023-03-31T07:46:23.187Z,74.15
2023-03-31T07:48:51.821Z,73.57
2023-03-31T07:51:22.447Z,73.75
2023-03-31T07:53:52.622Z,73.68
2023-03-31T07:56:23.174Z,74.60
2023-03-31T07:58:56.870Z,74.34
2023-03-31T08:01:26.283Z,73.76
2023-03-31T08:03:55.660Z,72.73
2023-03-31T08:06:26.189Z,71.70
2023-03-31T08:08:53.953Z,71.37
2023-03-31T08:11:22.010Z,71.39
2023-03-31T08:13:51.717Z,71.53
2023-03-31T08:16:19.704Z,70.69
2023-03-31T08:18:47.810Z,70.40
2023-03-31T08:21:15.901Z,70.44
2023-03-31T08:34:07.130Z,69.54
2023-03-31T08:36:35.046Z,69.49
2023-03-31T08:39:03.002Z,70.09
2023-03-31T08:41:49.303Z,70.43
2023-03-31T08:44:31.612Z,71.06
2023-03-31T08:47:02.259Z,72.14
2023-03-31T08:49:40.057Z,73.08
2023-03-31T08:52:14.804Z,73.92
2023-03-31T08:54:49.554Z,75.29
2023-03-31T08:57:36.887Z,74.75
2023-03-31T09:00:08.036Z,73.89
2023-03-31T09:02:42.278Z,73.77
2023-03-31T09:05:43.383Z,72.82
2023-03-31T09:08:35.302Z,72.62
2023-03-31T09:11:08.891Z,71.06
2023-03-31T09:14:06.512Z,70.47
2023-03-31T09:16:46.028Z,69.77
2023-03-31T09:19:43.254Z,69.12
2023-03-31T09:22:25.592Z,67.87
2023-03-31T09:25:06.345Z,67.53
2023-03-31T09:27:37.502Z,68.24
2023-03-31T09:30:28.118Z,68.02
2023-03-31T09:33:32.325Z,69.14
2023-03-31T09:36:01.835Z,69.74
2023-03-31T09:38:31.165Z,69.47
2023-03-31T09:41:02.961Z,69.26
2023-03-31T09:43:35.497Z,68.06
2023-03-31T09:46:15.161Z,68.04
2023-03-31T09:49:09.293Z,67.67
2023-03-31T09:51:57.562Z,68.14
2023-03-31T09:54:46.413Z,67.01
2023-03-31T09:57:23.522Z,67.15
2023-03-31T09:59:55.013Z,67.26
2023-03-31T10:03:01.883Z,66.45
2023-03-31T10:05:33.747Z,67.37
2023-03-31T10:08:17.155Z,66.89
2023-03-31T10:11:14.875Z,66.12
2023-03-31T10:13:49.103Z,65.33
2023-03-31T10:16:32.725Z,65.29
2023-03-31T10:19:16.159Z,64.26
2023-03-31T10:23:34.625Z,65.51
2023-03-31T10:27:34.278Z,64.53
2023-03-31T10:30:52.656Z,63.90
2023-03-31T10:33:25.971Z,63.91
2023-03-31T10:35:59.718Z,62.69
2023-03-31T10:39:36.710Z,59.24
2023-03-31T10:42:04.884Z,58.49
2023-03-31T10:47:27.150Z,58.68
2023-03-31T10:51:25.967Z,56.60
2023-03-31T10:55:06.403Z,57.46
2023-03-31T10:58:06.116Z,58.27
2023-03-31T11:02:08.808Z,59.33
2023-03-31T11:04:56.100Z,57.81
2023-03-31T11:08:50.131Z,56.53
2023-03-31T11:12:58.409Z,54.84
2023-03-31T11:16:40.362Z,55.11
2023-03-31T11:20:13.036Z,55.99
2023-03-31T11:24:31.921Z,56.67
2023-03-31T11:42:54.223Z,53.96
2023-03-31T11:46:51.690Z,54.02
2023-03-31T11:50:34.571Z,52.07
2023-03-31T11:54:27.650Z,52.05
2023-03-31T11:58:04.356Z,53.47
2023-03-31T12:00:44.253Z,53.41
2023-03-31T12:03:20.935Z,52.97
2023-03-31T12:05:57.501Z,51.89
2023-03-31T12:08:44.503Z,52.67
2023-03-31T12:11:17.404Z,51.48
2023-03-31T12:13:54.365Z,50.27
2023-03-31T12:16:40.025Z,50.79
2023-03-31T12:19:14.699Z,51.26
2023-03-31T12:21:50.082Z,51.72
2023-03-31T12:24:20.200Z,51.76
2023-03-31T12:27:02.993Z,51.13
2023-03-31T12:29:43.212Z,50.91
2023-03-31T12:32:18.598Z,50.67
2023-03-31T12:34:58.612Z,49.67
2023-03-31T12:37:55.554Z,50.24
2023-03-31T12:40:46.609Z,50.18
2023-03-31T12:43:38.498Z,50.94
2023-03-31T12:46:48.759Z,48.75
2023-03-31T12:49:36.932Z,47.30
2023-03-31T12:54:23.386Z,45.80
2023-03-31T12:58:34.118Z,45.85
2023-03-31T13:02:16.753Z,48.24
2023-03-31T13:05:54.489Z,50.24
2023-03-31T13:09:46.817Z,49.45
2023-03-31T13:13:27.061Z,48.83
2023-03-31T13:17:30.860Z,46.35
2023-03-31T13:21:17.466Z,46.60
2023-03-31T13:24:45.665Z,46.35
2023-03-31T13:27:50.241Z,47.88
2023-03-31T13:30:42.603Z,48.10
2023-03-31T13:33:17.771Z,49.03
2023-03-31T13:35:50.377Z,49.07
2023-03-31T13:39:00.799Z,49.66
2023-03-31T13:41:53.052Z,51.22
2023-03-31T13:44:55.662Z,51.92
2023-03-31T13:47:51.477Z,52.39
2023-03-31T13:53:31.495Z,53.84
2023-03-31T13:56:20.218Z,56.25
2023-03-31T13:59:06.018Z,56.40
2023-03-31T14:01:48.695Z,57.03
2023-03-31T14:04:58.472Z,58.31
2023-03-31T14:07:37.310Z,58.67
2023-03-31T14:10:31.442Z,58.84
2023-03-31T14:14:29.456Z,58.20
2023-03-31T14:17:02.185Z,58.17
2023-03-31T14:23:53.514Z,53.58
2023-03-31T14:28:28.602Z,46.53
2023-03-31T14:32:29.257Z,44.96
2023-03-31T14:35:18.459Z,48.13
2023-03-31T14:37:46.779Z,50.90
2023-03-31T14:40:17.218Z,52.34
2023-03-31T14:42:49.942Z,53.46
2023-03-31T14:45:17.940Z,54.20
2023-03-31T14:59:22.329Z,55.40
2023-03-31T15:12:29.554Z,55.58
2023-03-31T15:15:17.098Z,56.48
2023-03-31T15:19:00.887Z,56.79
2023-03-31T15:22:50.913Z,57.14
2023-03-31T15:25:18.211Z,55.75
2023-03-31T15:27:55.521Z,55.56
2023-03-31T15:30:24.919Z,55.86
2023-03-31T15:36:27.906Z,56.11
2023-03-31T15:38:59.083Z,56.82
2023-03-31T15:41:31.267Z,57.76
2023-03-31T15:44:37.988Z,60.83
2023-03-31T15:47:17.354Z,65.67
2023-03-31T15:50:10.087Z,67.46
2023-03-31T15:52:54.190Z,70.13
2023-03-31T15:56:37.921Z,73.87
2023-03-31T16:00:35.229Z,76.92
2023-03-31T16:04:15.474Z,77.24
2023-03-31T16:07:53.035Z,78.12
2023-03-31T16:11:55.911Z,76.13
2023-03-31T16:15:14.304Z,76.54
2023-03-31T16:19:13.774Z,78.03
2023-03-31T16:21:46.705Z,78.21
2023-03-31T16:24:15.022Z,78.44
2023-03-31T16:26:42.299Z,78.35
2023-03-31T16:29:08.742Z,78.47
2023-03-31T16:31:39.430Z,77.91
2023-03-31T16:34:08.980Z,77.75
2023-03-31T16:36:35.855Z,77.66
2023-03-31T16:39:04.721Z,77.94
2023-03-31T16:41:33.157Z,78.02
2023-03-31T16:45:29.453Z,78.64
2023-03-31T16:48:54.954Z,79.57
2023-03-31T16:52:54.424Z,80.46
2023-03-31T16:56:12.069Z,81.10
2023-03-31T17:00:17.768Z,81.20
2023-03-31T17:03:58.811Z,81.26
2023-03-31T17:07:36.481Z,81.96
2023-03-31T17:11:14.372Z,81.85
2023-03-31T17:13:44.681Z,81.89
2023-03-31T17:18:43.793Z,81.67
2023-03-31T17:21:14.430Z,81.50
2023-03-31T17:25:08.534Z,81.54
2023-03-31T17:28:44.485Z,82.71
2023-03-31T17:32:22.563Z,83.19
2023-03-31T17:36:01.873Z,83.74
2023-03-31T17:38:30.702Z,84.22
2023-03-31T17:41:06.189Z,84.23
2023-03-31T17:43:35.650Z,83.74
2023-03-31T17:46:07.806Z,83.69
2023-03-31T17:48:39.769Z,84.08
2023-03-31T17:51:14.976Z,84.18
2023-03-31T17:53:45.311Z,83.51
2023-03-31T17:56:14.856Z,82.87
2023-03-31T17:58:43.451Z,81.12
2023-03-31T18:01:12.822Z,79.98
2023-03-31T18:03:41.335Z,78.04
2023-03-31T18:06:12.610Z,77.22
2023-03-31T18:08:42.171Z,76.93
2023-03-31T18:11:10.854Z,76.38
2023-03-31T18:13:39.436Z,76.20
2023-03-31T18:16:10.978Z,76.33
2023-03-31T18:18:39.586Z,76.71
2023-03-31T18:21:44.633Z,77.02
2023-03-31T18:25:27.083Z,79.13
2023-03-31T18:27:55.194Z,81.29
2023-03-31T18:30:23.726Z,83.41
2023-03-31T18:32:54.682Z,84.93
2023-03-31T18:35:23.463Z,87.61
2023-03-31T18:37:54.436Z,90.11
2023-03-31T18:40:22.747Z,90.84
2023-03-31T18:42:52.041Z,91.18
2023-03-31T18:45:19.936Z,91.76
2023-03-31T18:47:48.173Z,91.77
2023-03-31T18:50:16.678Z,91.86
2023-03-31T18:52:46.375Z,92.21
2023-03-31T18:55:18.218Z,92.40
2023-03-31T18:57:46.894Z,93.15
2023-03-31T19:00:15.273Z,93.72
2023-03-31T19:02:45.022Z,94.24
2023-03-31T19:05:13.430Z,94.62
2023-03-31T19:07:41.544Z,95.15
2023-03-31T19:10:09.737Z,95.14
2023-03-31T19:12:40.354Z,95.95
2023-03-31T19:15:33.920Z,97.24
2023-03-31T19:18:02.097Z,98.24
2023-03-31T19:20:30.014Z,98.50
2023-03-31T19:23:07.971Z,99.02
2023-03-31T19:25:38.558Z,99.15
2023-03-31T19:28:07.326Z,99.05
2023-03-31T19:30:58.704Z,98.66
2023-03-31T19:33:27.168Z,99.52
2023-03-31T19:35:58.385Z,99.34
2023-03-31T19:38:27.252Z,99.08
2023-03-31T19:40:58.537Z,99.00
2023-03-31T19:43:29.398Z,99.23
2023-03-31T19:46:19.306Z,99.63
2023-03-31T19:48:47.670Z,100.00
2023-03-31T19:51:16.854Z,100.00
2023-03-31T19:53:46.298Z,100.00
2023-03-31T19:56:18.754Z,100.00
2023-03-31T19:59:08.392Z,100.00
2023-03-31T20:01:40.321Z,100.00
2023-03-31T20:04:09.027Z,100.00
2023-03-31T20:06:37.822Z,100.00
2023-03-31T20:09:13.232Z,100.00
2023-03-31T20:11:50.085Z,100.00
2023-03-31T20:14:20.969Z,100.00
2023-03-31T20:16:57.079Z,100.00
2023-03-31T20:19:25.547Z,100.00
2023-03-31T20:21:59.623Z,100.00
2023-03-31T20:24:39.554Z,100.00
2023-03-31T20:27:09.598Z,100.00
2023-03-31T20:30:04.712Z,100.00
2023-03-31T20:32:32.869Z,100.00
2023-03-31T20:35:01.716Z,100.00
2023-03-31T20:37:30.071Z,100.00
2023-03-31T20:39:58.224Z,100.00
2023-03-31T20:42:53.804Z,100.00
2023-03-31T20:45:21.782Z,100.00
2023-03-31T20:47:51.089Z,100.00
2023-03-31T20:52:21.476Z,100.00
2023-03-31T20:55:57.766Z,100.00
2023-03-31T20:58:26.609Z,100.00
2023-03-31T21:00:59.292Z,100.00
2023-03-31T21:03:28.878Z,100.00
2023-03-31T21:06:03.405Z,100.00
2023-03-31T21:08:31.929Z,100.00
2023-03-31T21:11:01.155Z,100.00
2023-03-31T21:13:30.956Z,100.00
2023-03-31T21:16:04.635Z,100.00
2023-03-31T21:18:34.675Z,100.00
2023-03-31T21:21:07.473Z,100.00
2023-03-31T21:23:35.954Z,100.00
2023-03-31T21:26:05.742Z,100.00
2023-03-31T21:28:36.791Z,100.00
2023-03-31T21:31:11.195Z,100.00
2023-03-31T21:33:41.875Z,100.00
2023-03-31T21:36:14.986Z,100.00
2023-03-31T21:38:45.900Z,100.00
2023-03-31T21:41:16.588Z,100.00
2023-03-31T21:43:50.143Z,100.00
2023-03-31T21:46:22.601Z,100.00
2023-03-31T21:49:16.666Z,100.00
2023-03-31T21:51:45.515Z,100.00
2023-03-31T21:54:17.730Z,100.00
2023-03-31T21:56:46.931Z,100.00
2023-03-31T21:59:15.562Z,100.00
2023-03-31T22:01:44.399Z,100.00
2023-03-31T22:04:13.639Z,100.00
2023-03-31T22:06:41.719Z,100.00
2023-03-31T22:09:12.103Z,100.00
2023-03-31T22:11:40.057Z,100.00
2023-03-31T22:14:08.231Z,100.00
2023-03-31T22:16:37.179Z,100.00
2023-03-31T22:19:05.765Z,100.00
2023-03-31T22:21:34.197Z,100.00
2023-03-31T22:24:02.458Z,100.00
2023-03-31T22:28:39.808Z,100.00
2023-03-31T22:32:21.848Z,100.00
2023-03-31T22:35:50.806Z,100.00
2023-03-31T22:39:32.223Z,100.00
2023-03-31T22:43:16.483Z,100.00
2023-03-31T22:46:51.821Z,100.00
2023-03-31T22:50:35.516Z,100.00
2023-03-31T23:04:47.607Z,100.00
2023-03-31T23:07:40.259Z,100.00
2023-03-31T23:30:23.676Z,100.00
2023-03-31T23:34:03.082Z,100.00
